createdAt,value
2022-12-18T00:01:34.165Z,102018.66
2022-12-18T00:04:04.496Z,102023.56
2022-12-18T00:06:33.727Z,102033.00
2022-12-18T00:09:02.107Z,102037.25
2022-12-18T00:11:31.240Z,102042.63
2022-12-18T00:13:59.927Z,102042.44
2022-12-18T00:16:29.014Z,102050.22
2022-12-18T00:19:00.528Z,102062.06
2022-12-18T00:21:29.231Z,102067.22
2022-12-18T00:23:57.487Z,102071.28
2022-12-18T00:26:31.203Z,102064.41
2022-12-18T00:29:01.800Z,102073.03
2022-12-18T00:31:31.730Z,102070.50
2022-12-18T00:34:00.167Z,102069.63
2022-12-18T00:36:30.246Z,102084.16
2022-12-18T00:38:59.268Z,102085.94
2022-12-18T00:41:45.977Z,102092.84
2022-12-18T00:44:16.214Z,102092.44
2022-12-18T00:46:44.754Z,102096.91
2022-12-18T00:49:12.929Z,102107.06
2022-12-18T00:51:40.547Z,102110.47
2022-12-18T00:54:08.518Z,102113.06
2022-12-18T00:56:45.737Z,102118.84
2022-12-18T00:59:18.108Z,102134.56
2022-12-18T01:01:45.945Z,102129.25
2022-12-18T01:04:14.103Z,102132.66
2022-12-18T01:06:42.038Z,102128.53
2022-12-18T01:09:09.570Z,102126.62
2022-12-18T01:11:37.701Z,102135.81
2022-12-18T01:14:05.804Z,102145.13
2022-12-18T01:16:33.407Z,102139.44
2022-12-18T01:19:01.038Z,102141.00
2022-12-18T01:21:29.016Z,102138.19
2022-12-18T01:23:57.400Z,102148.81
2022-12-18T01:26:25.985Z,102152.81
2022-12-18T01:28:55.834Z,102158.87
2022-12-18T01:31:26.885Z,102163.13
2022-12-18T01:33:56.228Z,102160.56
2022-12-18T01:36:29.764Z,102158.63
2022-12-18T01:39:00.097Z,102160.94
2022-12-18T01:41:53.251Z,102166.50
2022-12-18T01:44:55.667Z,102161.28
2022-12-18T01:47:30.267Z,102164.75
2022-12-18T01:50:00.699Z,102170.91
2022-12-18T01:52:30.364Z,102178.87
2022-12-18T01:54:58.298Z,102186.47
2022-12-18T01:57:28.308Z,102184.22
2022-12-18T01:59:58.938Z,102174.56
2022-12-18T02:02:30.269Z,102180.16
2022-12-18T02:04:59.708Z,102185.44
2022-12-18T02:07:36.293Z,102187.19
2022-12-18T02:10:30.408Z,102182.25
2022-12-18T02:13:12.986Z,102196.78
2022-12-18T02:15:46.432Z,102198.47
2022-12-18T02:18:22.685Z,102200.44
2022-12-18T02:20:55.551Z,102183.31
2022-12-18T02:23:47.347Z,102193.44
2022-12-18T02:26:21.054Z,102201.88
2022-12-18T02:28:56.483Z,102202.28
2022-12-18T02:31:31.155Z,102210.78
2022-12-18T02:34:01.605Z,102204.41
2022-12-18T02:36:29.628Z,102217.53
2022-12-18T02:38:58.120Z,102214.81
2022-12-18T02:41:26.566Z,102214.06
2022-12-18T02:44:00.665Z,102216.66
2022-12-18T02:46:41.736Z,102219.56
2022-12-18T02:49:27.134Z,102223.81
2022-12-18T02:52:19.982Z,102233.25
2022-12-18T02:54:51.372Z,102235.06
2022-12-18T02:57:26.470Z,102231.75
2022-12-18T03:00:01.647Z,102237.59
2022-12-18T03:02:40.899Z,102240.25
2022-12-18T03:05:23.230Z,102228.22
2022-12-18T03:07:57.955Z,102236.94
2022-12-18T03:10:31.207Z,102236.03
2022-12-18T03:13:27.485Z,102254.06
2022-12-18T03:15:56.675Z,102259.34
2022-12-18T03:18:43.914Z,102254.19
2022-12-18T03:21:12.300Z,102260.06
2022-12-18T03:23:48.087Z,102249.09
2022-12-18T03:26:20.326Z,102252.66
2022-12-18T03:28:53.604Z,102264.09
2022-12-18T03:31:23.601Z,102270.66
2022-12-18T03:33:57.289Z,102281.16
2022-12-18T03:36:26.061Z,102286.38
2022-12-18T03:38:54.080Z,102285.53
2022-12-18T03:41:31.629Z,102285.69
2022-12-18T03:44:14.879Z,102279.66
2022-12-18T03:46:58.170Z,102274.97
2022-12-18T03:49:31.607Z,102288.47
2022-12-18T03:52:12.621Z,102291.97
2022-12-18T03:54:42.748Z,102291.13
2022-12-18T03:57:15.368Z,102293.94
2022-12-18T03:59:44.407Z,102295.50
2022-12-18T04:02:16.004Z,102300.69
2022-12-18T04:04:44.399Z,102298.31
2022-12-18T04:07:13.161Z,102315.47
2022-12-18T04:09:41.918Z,102312.97
2022-12-18T04:12:10.103Z,102316.19
2022-12-18T04:14:37.914Z,102317.97
2022-12-18T04:17:06.111Z,102318.84
2022-12-18T04:19:34.006Z,102317.44
2022-12-18T04:22:02.257Z,102323.31
2022-12-18T04:24:31.757Z,102326.84
2022-12-18T04:27:02.440Z,102324.19
2022-12-18T04:29:31.385Z,102332.47
2022-12-18T04:31:58.910Z,102335.06
2022-12-18T04:34:27.140Z,102347.78
2022-12-18T04:36:54.757Z,102354.66
2022-12-18T04:39:22.666Z,102355.78
2022-12-18T04:41:50.846Z,102361.81
2022-12-18T04:44:18.743Z,102374.69
2022-12-18T04:46:46.238Z,102355.44
2022-12-18T04:49:14.123Z,102376.22
2022-12-18T04:51:41.765Z,102379.63
2022-12-18T04:54:09.231Z,102388.31
2022-12-18T04:56:36.996Z,102376.88
2022-12-18T04:59:04.485Z,102386.59
2022-12-18T05:01:34.805Z,102387.44
2022-12-18T05:04:04.755Z,102396.97
2022-12-18T05:06:32.379Z,102391.69
2022-12-18T05:08:59.917Z,102375.31
2022-12-18T05:11:27.680Z,102391.81
2022-12-18T05:13:56.591Z,102396.13
2022-12-18T05:16:24.244Z,102394.38
2022-12-18T05:18:52.017Z,102396.91
2022-12-18T05:21:20.356Z,102389.63
2022-12-18T05:23:47.919Z,102407.28
2022-12-18T05:26:18.380Z,102398.50
2022-12-18T05:28:46.931Z,102396.63
2022-12-18T05:31:14.942Z,102406.81
2022-12-18T05:33:43.125Z,102409.53
2022-12-18T05:36:11.035Z,102410.88
2022-12-18T05:38:39.364Z,102403.00
2022-12-18T05:41:08.169Z,102421.25
2022-12-18T05:43:37.630Z,102421.88
2022-12-18T05:46:07.627Z,102425.63
2022-12-18T05:48:35.599Z,102430.00
2022-12-18T05:51:15.558Z,102428.44
2022-12-18T05:53:44.118Z,102437.88
2022-12-18T05:56:15.710Z,102437.78
2022-12-18T05:58:43.930Z,102447.97
2022-12-18T06:01:16.041Z,102453.37
2022-12-18T06:03:44.213Z,102458.28
2022-12-18T06:06:19.906Z,102454.91
2022-12-18T06:08:47.768Z,102452.97
2022-12-18T06:11:18.509Z,102454.84
2022-12-18T06:13:46.440Z,102452.94
2022-12-18T06:16:14.223Z,102453.75
2022-12-18T06:18:41.822Z,102457.09
2022-12-18T06:21:09.515Z,102457.75
2022-12-18T06:23:37.620Z,102465.53
2022-12-18T06:26:10.693Z,102462.66
2022-12-18T06:28:38.715Z,102475.13
2022-12-18T06:31:07.205Z,102473.41
2022-12-18T06:33:35.576Z,102481.31
2022-12-18T06:36:08.413Z,102485.31
2022-12-18T06:38:37.676Z,102486.16
2022-12-18T06:41:17.115Z,102487.97
2022-12-18T06:43:45.118Z,102496.69
2022-12-18T06:46:13.586Z,102496.72
2022-12-18T06:48:41.308Z,102504.50
2022-12-18T06:51:08.840Z,102502.62
2022-12-18T06:53:36.703Z,102513.88
2022-12-18T06:56:10.171Z,102516.28
2022-12-18T06:58:39.990Z,102511.94
2022-12-18T07:01:11.398Z,102516.38
2022-12-18T07:03:43.584Z,102528.22
2022-12-18T07:06:16.950Z,102527.59
2022-12-18T07:08:45.357Z,102536.25
2022-12-18T07:11:13.566Z,102540.94
2022-12-18T07:13:41.520Z,102555.94
2022-12-18T07:16:22.596Z,102553.38
2022-12-18T07:18:53.000Z,102559.59
2022-12-18T07:21:22.075Z,102564.75
2022-12-18T07:23:49.759Z,102565.81
2022-12-18T07:26:19.796Z,102571.66
2022-12-18T07:28:47.872Z,102578.00
2022-12-18T07:31:18.212Z,102568.34
2022-12-18T07:33:46.684Z,102576.38
2022-12-18T07:36:14.980Z,102573.97
2022-12-18T07:38:42.592Z,102579.06
2022-12-18T07:41:12.701Z,102580.53
2022-12-18T07:43:42.045Z,102590.47
2022-12-18T07:46:10.734Z,102597.31
2022-12-18T07:48:49.523Z,102604.34
2022-12-18T07:51:19.069Z,102606.19
2022-12-18T07:53:49.328Z,102627.16
2022-12-18T07:56:29.384Z,102622.00
2022-12-18T07:58:59.606Z,102618.66
2022-12-18T08:01:27.407Z,102623.81
2022-12-18T08:03:55.554Z,102625.53
2022-12-18T08:06:24.240Z,102617.88
2022-12-18T08:08:56.542Z,102619.59
2022-12-18T08:11:26.585Z,102631.94
2022-12-18T08:13:54.362Z,102638.94
2022-12-18T08:16:22.910Z,102642.47
2022-12-18T08:18:52.251Z,102650.41
2022-12-18T08:21:24.034Z,102640.03
2022-12-18T08:23:55.276Z,102657.31
2022-12-18T08:26:23.431Z,102651.28
2022-12-18T08:28:51.860Z,102656.72
2022-12-18T08:31:20.038Z,102669.09
2022-12-18T08:33:53.269Z,102680.06
2022-12-18T08:36:22.197Z,102665.34
2022-12-18T08:38:49.857Z,102672.53
2022-12-18T08:41:19.066Z,102679.53
2022-12-18T08:44:05.724Z,102682.34
2022-12-18T08:46:38.050Z,102671.19
2022-12-18T08:49:06.658Z,102678.22
2022-12-18T08:51:35.078Z,102681.00
2022-12-18T08:54:04.477Z,102672.56
2022-12-18T08:56:35.193Z,102671.09
2022-12-18T08:59:03.788Z,102673.78
2022-12-18T09:01:31.550Z,102674.78
2022-12-18T09:03:59.951Z,102672.25
2022-12-18T09:06:27.719Z,102670.81
2022-12-18T09:08:55.291Z,102674.37
2022-12-18T09:11:25.607Z,102671.84
2022-12-18T09:13:53.921Z,102678.94
2022-12-18T09:16:25.988Z,102689.53
2022-12-18T09:19:00.590Z,102679.75
2022-12-18T09:21:32.306Z,102686.22
2022-12-18T09:24:02.669Z,102692.44
2022-12-18T09:26:30.240Z,102696.00
2022-12-18T09:28:58.031Z,102698.78
2022-12-18T09:31:25.929Z,102692.03
2022-12-18T09:33:53.457Z,102695.00
2022-12-18T09:36:21.032Z,102703.84
2022-12-18T09:38:49.743Z,102700.44
2022-12-18T09:41:48.988Z,102706.59
2022-12-18T09:44:18.968Z,102709.34
2022-12-18T09:47:34.748Z,102702.78
2022-12-18T09:50:06.131Z,102702.84
2022-12-18T09:52:45.611Z,102693.47
2022-12-18T09:55:16.385Z,102696.16
2022-12-18T09:57:49.192Z,102699.03
2022-12-18T10:00:20.699Z,102684.47
2022-12-18T10:02:49.238Z,102694.22
2022-12-18T10:05:21.555Z,102691.50
2022-12-18T10:08:14.226Z,102683.91
2022-12-18T10:10:54.229Z,102683.28
2022-12-18T10:13:31.156Z,102678.03
2022-12-18T10:16:13.965Z,102678.22
2022-12-18T10:19:33.213Z,102673.09
2022-12-18T10:22:18.971Z,102670.69
2022-12-18T10:25:27.408Z,102674.28
2022-12-18T10:27:59.116Z,102679.59
2022-12-18T10:30:28.087Z,102667.63
2022-12-18T10:32:57.173Z,102664.37
2022-12-18T10:35:27.819Z,102670.53
2022-12-18T10:38:03.023Z,102659.25
2022-12-18T10:40:31.135Z,102663.78
2022-12-18T10:43:15.669Z,102671.66
2022-12-18T10:45:43.652Z,102664.91
2022-12-18T10:48:23.745Z,102670.16
2022-12-18T10:53:44.020Z,102659.19
2022-12-18T10:56:12.082Z,102648.78
2022-12-18T10:58:41.083Z,102648.16
2022-12-18T11:01:13.314Z,102655.97
2022-12-18T11:03:42.384Z,102655.19
2022-12-18T11:06:15.206Z,102655.31
2022-12-18T11:08:45.096Z,102657.13
2022-12-18T11:11:23.489Z,102653.75
2022-12-18T11:13:59.345Z,102645.94
2022-12-18T11:16:28.222Z,102657.34
2022-12-18T11:19:29.963Z,102666.94
2022-12-18T11:21:57.823Z,102658.28
2022-12-18T11:24:30.516Z,102649.75
2022-12-18T11:27:00.123Z,102642.75
2022-12-18T11:29:32.656Z,102650.66
2022-12-18T11:32:15.665Z,102652.38
2022-12-18T11:34:47.123Z,102645.47
2022-12-18T11:37:16.362Z,102660.34
2022-12-18T11:39:50.427Z,102658.62
2022-12-18T11:42:22.717Z,102664.69
2022-12-18T11:45:27.153Z,102662.16
2022-12-18T11:48:07.087Z,102669.09
2022-12-18T11:50:56.797Z,102652.66
2022-12-18T11:53:26.525Z,102665.75
2022-12-18T11:56:03.474Z,102665.81
2022-12-18T11:58:45.105Z,102668.44
2022-12-18T12:01:44.843Z,102661.53
2022-12-18T12:04:41.384Z,102666.81
2022-12-18T12:07:42.190Z,102674.59
2022-12-18T12:10:49.055Z,102674.66
2022-12-18T12:13:36.174Z,102680.66
2022-12-18T12:16:16.163Z,102687.66
2022-12-18T12:19:03.311Z,102676.44
2022-12-18T12:21:41.312Z,102680.75
2022-12-18T12:24:21.817Z,102679.09
2022-12-18T12:27:29.431Z,102666.19
2022-12-18T12:30:21.474Z,102661.06
2022-12-18T12:33:15.305Z,102661.06
2022-12-18T12:36:10.101Z,102664.53
2022-12-18T12:38:49.760Z,102645.53
2022-12-18T12:41:41.343Z,102643.84
2022-12-18T12:44:13.816Z,102642.12
2022-12-18T12:46:43.067Z,102639.53
2022-12-18T12:49:15.113Z,102641.28
2022-12-18T12:51:53.886Z,102649.06
2022-12-18T12:54:24.853Z,102643.00
2022-12-18T12:57:09.991Z,102646.47
2022-12-18T12:59:43.479Z,102654.25
2022-12-18T13:02:17.061Z,102654.25
2022-12-18T13:04:51.588Z,102654.25
2022-12-18T13:07:37.093Z,102663.78
2022-12-18T13:10:43.567Z,102667.25
2022-12-18T13:13:13.533Z,102667.25
2022-12-18T13:15:47.677Z,102658.56
2022-12-18T13:18:26.305Z,102661.19
2022-12-18T13:21:03.245Z,102657.63
2022-12-18T13:23:37.951Z,102674.16
2022-12-18T13:26:11.525Z,102660.31
2022-12-18T13:28:48.370Z,102668.06
2022-12-18T13:31:42.538Z,102680.28
2022-12-18T13:34:28.288Z,102693.19
2022-12-18T13:37:00.537Z,102694.91
2022-12-18T13:39:36.110Z,102690.53
2022-12-18T13:42:07.423Z,102693.16
2022-12-18T13:44:40.637Z,102706.12
2022-12-18T13:47:32.900Z,102708.72
2022-12-18T13:50:01.616Z,102707.84
2022-12-18T13:52:36.087Z,102699.97
2022-12-18T13:55:06.821Z,102702.66
2022-12-18T13:57:39.324Z,102709.50
2022-12-18T14:00:25.762Z,102708.63
2022-12-18T14:02:54.081Z,102710.25
2022-12-18T14:05:33.447Z,102724.06
2022-12-18T14:08:13.999Z,102726.62
2022-12-18T14:10:48.370Z,102735.22
2022-12-18T14:13:25.625Z,102734.34
2022-12-18T14:15:53.727Z,102740.38
2022-12-18T14:18:35.152Z,102736.03
2022-12-18T14:21:07.015Z,102732.47
2022-12-18T14:23:42.092Z,102737.53
2022-12-18T14:26:23.801Z,102753.09
2022-12-18T14:28:52.016Z,102752.16
2022-12-18T14:31:25.418Z,102746.94
2022-12-18T14:33:54.323Z,102745.13
2022-12-18T14:36:27.200Z,102754.53
2022-12-18T14:38:57.187Z,102745.69
2022-12-18T14:41:25.321Z,102750.94
2022-12-18T14:43:54.991Z,102744.78
2022-12-18T14:46:38.916Z,102733.22
2022-12-18T14:49:28.514Z,102750.53
2022-12-18T14:52:29.113Z,102754.72
2022-12-18T14:54:56.601Z,102772.72
2022-12-18T14:57:36.230Z,102771.72
2022-12-18T15:00:12.363Z,102775.03
2022-12-18T15:02:40.363Z,102761.75
2022-12-18T15:05:13.943Z,102785.91
2022-12-18T15:07:50.652Z,102781.41
2022-12-18T15:10:21.083Z,102781.25
2022-12-18T15:12:51.267Z,102775.00
2022-12-18T15:15:34.666Z,102787.06
2022-12-18T15:18:08.840Z,102785.34
2022-12-18T15:20:45.604Z,102788.66
2022-12-18T15:23:23.833Z,102793.75
2022-12-18T15:26:01.530Z,102792.72
2022-12-18T15:28:38.053Z,102792.59
2022-12-18T15:31:09.855Z,102801.97
2022-12-18T15:33:45.181Z,102809.59
2022-12-18T15:36:15.409Z,102809.31
2022-12-18T15:38:48.305Z,102809.91
2022-12-18T15:41:22.936Z,102803.47
2022-12-18T15:43:53.482Z,102817.81
2022-12-18T15:46:25.154Z,102818.16
2022-12-18T15:49:01.760Z,102822.22
2022-12-18T15:51:33.860Z,102834.28
2022-12-18T15:54:06.325Z,102820.97
2022-12-18T15:56:53.150Z,102827.81
2022-12-18T15:59:21.833Z,102831.97
2022-12-18T16:01:51.418Z,102824.97
2022-12-18T16:04:21.695Z,102833.44
2022-12-18T16:09:38.068Z,102837.03
2022-12-18T16:12:07.723Z,102848.97
2022-12-18T16:14:35.356Z,102855.78
2022-12-18T16:17:06.896Z,102864.34
2022-12-18T16:19:34.616Z,102853.06
2022-12-18T16:22:03.714Z,102853.91
2022-12-18T16:24:33.629Z,102857.22
2022-12-18T16:27:01.294Z,102860.53
2022-12-18T16:29:29.945Z,102868.81
2022-12-18T16:31:59.451Z,102874.44
2022-12-18T16:34:35.678Z,102879.66
2022-12-18T16:37:06.881Z,102880.31
2022-12-18T16:39:35.655Z,102894.81
2022-12-18T16:42:11.044Z,102898.25
2022-12-18T16:44:39.270Z,102889.69
2022-12-18T16:47:07.030Z,102898.22
2022-12-18T16:49:38.236Z,102900.59
2022-12-18T16:52:07.040Z,102894.81
2022-12-18T16:54:36.730Z,102895.63
2022-12-18T16:57:05.533Z,102899.78
2022-12-18T16:59:34.752Z,102899.62
2022-12-18T17:02:02.523Z,102898.03
2022-12-18T17:04:30.183Z,102899.41
2022-12-18T17:06:59.314Z,102896.66
2022-12-18T17:09:27.059Z,102892.44
2022-12-18T17:11:55.349Z,102894.94
2022-12-18T17:14:24.753Z,102894.91
2022-12-18T17:17:19.874Z,102904.22
2022-12-18T17:19:41.764Z,102895.72
2022-12-18T17:22:09.580Z,102897.84
2022-12-18T17:24:37.549Z,102907.44
2022-12-18T17:27:05.640Z,102906.66
2022-12-18T17:29:33.575Z,102910.19
2022-12-18T17:32:01.344Z,102909.91
2022-12-18T17:34:30.028Z,102915.97
2022-12-18T17:36:58.567Z,102921.00
2022-12-18T17:39:26.224Z,102911.50
2022-12-18T17:41:54.446Z,102920.88
2022-12-18T17:44:22.396Z,102915.63
2022-12-18T17:46:50.230Z,102919.81
2022-12-18T17:49:18.468Z,102910.03
2022-12-18T17:51:46.345Z,102918.19
2022-12-18T17:54:14.187Z,102918.97
2022-12-18T17:56:42.317Z,102925.03
2022-12-18T17:59:10.640Z,102918.09
2022-12-18T18:01:44.417Z,102921.34
2022-12-18T18:04:13.918Z,102917.59
2022-12-18T18:06:42.050Z,102924.84
2022-12-18T18:09:15.618Z,102931.56
2022-12-18T18:12:04.260Z,102924.94
2022-12-18T18:14:32.392Z,102926.84
2022-12-18T18:17:04.442Z,102921.69
2022-12-18T18:19:33.616Z,102923.44
2022-12-18T18:22:02.922Z,102930.28
2022-12-18T18:24:31.179Z,102919.78
2022-12-18T18:27:00.135Z,102919.56
2022-12-18T18:29:32.558Z,102924.50
2022-12-18T18:32:00.412Z,102915.16
2022-12-18T18:34:30.436Z,102914.34
2022-12-18T18:36:58.197Z,102908.03
2022-12-18T18:39:25.945Z,102920.50
2022-12-18T18:41:54.003Z,102917.78
2022-12-18T18:44:25.628Z,102919.38
2022-12-18T18:46:57.818Z,102923.91
2022-12-18T18:49:27.546Z,102918.81
2022-12-18T18:51:57.143Z,102920.72
2022-12-18T18:54:25.725Z,102921.37
2022-12-18T18:57:19.580Z,102924.25
2022-12-18T18:59:42.237Z,102928.31
2022-12-18T19:02:13.316Z,102915.75
2022-12-18T19:04:46.153Z,102911.69
2022-12-18T19:07:25.394Z,102904.16
2022-12-18T19:10:04.264Z,102906.72
2022-12-18T19:12:53.311Z,102912.28
2022-12-18T19:15:23.017Z,102912.44
2022-12-18T19:17:50.838Z,102906.28
2022-12-18T19:20:19.500Z,102925.31
2022-12-18T19:22:54.356Z,102932.13
2022-12-18T19:25:38.061Z,102937.59
2022-12-18T19:28:19.962Z,102947.25
2022-12-18T19:30:50.770Z,102941.06
2022-12-18T19:36:12.910Z,102944.03
2022-12-18T19:38:44.117Z,102950.25
2022-12-18T19:41:14.823Z,102946.13
2022-12-18T19:43:43.861Z,102951.13
2022-12-18T19:46:14.587Z,102953.81
2022-12-18T19:48:44.337Z,102960.06
2022-12-18T19:51:24.527Z,102959.69
2022-12-18T19:53:58.087Z,102966.66
2022-12-18T19:56:29.566Z,102963.38
2022-12-18T19:58:57.746Z,102959.91
2022-12-18T20:01:26.172Z,102955.37
2022-12-18T20:03:55.894Z,102963.16
2022-12-18T20:06:32.789Z,102962.13
2022-12-18T20:09:03.896Z,102976.97
2022-12-18T20:11:32.987Z,102980.34
2022-12-18T20:14:01.155Z,102977.72
2022-12-18T20:16:29.036Z,102974.47
2022-12-18T20:18:56.968Z,102970.81
2022-12-18T20:21:25.574Z,102976.91
2022-12-18T20:23:54.849Z,102980.28
2022-12-18T20:26:24.024Z,102977.50
2022-12-18T20:28:52.592Z,102973.66
2022-12-18T20:31:20.526Z,102978.81
2022-12-18T20:33:49.984Z,102979.53
2022-12-18T20:36:23.545Z,102987.47
2022-12-18T20:38:57.152Z,102976.03
2022-12-18T20:41:37.342Z,102988.41
2022-12-18T20:44:21.854Z,102986.09
2022-12-18T20:46:55.171Z,102982.50
2022-12-18T20:49:24.768Z,102981.06
2022-12-18T20:51:54.673Z,102986.37
2022-12-18T20:54:25.021Z,102985.72
2022-12-18T20:56:53.752Z,102990.03
2022-12-18T20:59:23.195Z,102992.78
2022-12-18T21:01:52.420Z,103000.28
2022-12-18T21:04:21.448Z,103000.66
2022-12-18T21:06:53.392Z,103005.66
2022-12-18T21:09:23.880Z,102999.78
2022-12-18T21:12:13.924Z,103006.13
2022-12-18T21:14:42.938Z,103009.66
2022-12-18T21:17:11.174Z,103005.38
2022-12-18T21:19:39.084Z,102999.34
2022-12-18T21:22:08.198Z,102991.72
2022-12-18T21:24:35.903Z,102990.03
2022-12-18T21:27:04.369Z,102995.03
2022-12-18T21:29:33.196Z,102991.41
2022-12-18T21:32:00.771Z,102989.44
2022-12-18T21:34:29.784Z,102988.44
2022-12-18T21:36:59.480Z,102995.00
2022-12-18T21:39:28.734Z,102995.56
2022-12-18T21:42:15.509Z,102984.56
2022-12-18T21:44:45.191Z,102994.59
2022-12-18T21:47:23.007Z,103001.50
2022-12-18T21:49:52.883Z,103001.50
2022-12-18T21:52:31.779Z,102998.63
2022-12-18T21:55:07.995Z,102998.97
2022-12-18T21:57:38.602Z,103004.50
2022-12-18T22:00:07.105Z,103013.03
2022-12-18T22:02:39.817Z,103014.06
2022-12-18T22:05:08.211Z,103015.19
2022-12-18T22:07:36.652Z,103007.78
2022-12-18T22:10:04.406Z,102999.19
2022-12-18T22:12:43.096Z,102996.69
2022-12-18T22:15:21.489Z,103000.41
2022-12-18T22:17:50.948Z,103002.34
2022-12-18T22:20:20.245Z,103005.87
2022-12-18T22:22:48.809Z,103004.28
2022-12-18T22:25:16.714Z,102996.47
2022-12-18T22:28:04.742Z,102991.41
2022-12-18T22:30:32.970Z,102996.06
2022-12-18T22:33:00.467Z,102994.72
2022-12-18T22:35:28.006Z,102996.69
2022-12-18T22:37:55.944Z,103003.69
2022-12-18T22:40:27.061Z,103003.94
2022-12-18T22:42:54.738Z,102980.56
2022-12-18T22:45:22.519Z,102989.31
2022-12-18T22:47:50.308Z,102988.22
2022-12-18T22:50:17.880Z,102986.84
2022-12-18T22:52:45.853Z,102975.28
2022-12-18T22:55:13.381Z,102992.22
2022-12-18T22:57:42.094Z,102997.03
2022-12-18T23:00:23.780Z,102984.78
2022-12-18T23:03:00.173Z,102993.66
2022-12-18T23:05:30.319Z,102977.84
2022-12-18T23:07:58.622Z,102953.81
2022-12-18T23:10:26.772Z,102976.88
2022-12-18T23:12:54.867Z,102967.78
2022-12-18T23:15:28.152Z,102975.91
2022-12-18T23:17:58.047Z,102972.41
2022-12-18T23:20:26.884Z,102980.09
2022-12-18T23:22:54.405Z,102984.84
2022-12-18T23:25:22.246Z,102979.34
2022-12-18T23:27:50.452Z,102989.88
2022-12-18T23:30:17.987Z,102985.78
2022-12-18T23:32:45.803Z,102975.19
2022-12-18T23:35:14.227Z,102982.56
2022-12-18T23:38:00.564Z,102984.38
2022-12-18T23:40:29.602Z,102990.13
2022-12-18T23:42:57.324Z,102995.31
2022-12-18T23:45:24.771Z,102997.88
2022-12-18T23:47:52.516Z,103000.69
2022-12-18T23:50:24.045Z,103006.66
2022-12-18T23:52:57.470Z,103007.03
2022-12-18T23:55:32.347Z,103010.28
2022-12-18T23:58:00.123Z,103006.25
